createdAt,value
2023-06-11T00:01:20.869Z,15.32
2023-06-11T00:03:53.837Z,15.16
2023-06-11T00:06:23.158Z,15.11
2023-06-11T00:08:54.598Z,15.10
2023-06-11T00:11:22.786Z,15.06
2023-06-11T00:13:50.705Z,15.13
2023-06-11T00:16:17.712Z,15.15
2023-06-11T00:18:44.397Z,15.11
2023-06-11T00:21:13.333Z,15.08
2023-06-11T00:23:39.859Z,14.94
2023-06-11T00:26:07.788Z,14.84
2023-06-11T00:28:35.220Z,14.86
2023-06-11T00:31:02.564Z,14.68
2023-06-11T00:33:29.061Z,14.67
2023-06-11T00:35:55.680Z,14.58
2023-06-11T00:38:22.141Z,14.67
2023-06-11T00:40:48.955Z,14.76
2023-06-11T00:43:18.456Z,14.86
2023-06-11T00:45:48.304Z,14.92
2023-06-11T00:48:14.817Z,14.78
2023-06-11T00:50:46.154Z,14.54
2023-06-11T00:53:13.643Z,14.45
2023-06-11T00:55:40.294Z,14.54
2023-06-11T00:58:14.675Z,14.40
2023-06-11T01:00:50.542Z,14.36
2023-06-11T01:03:22.491Z,14.30
2023-06-11T01:05:55.271Z,14.28
2023-06-11T01:08:23.686Z,14.27
2023-06-11T01:10:50.485Z,14.21
2023-06-11T01:13:16.984Z,14.14
2023-06-11T01:15:43.371Z,14.08
2023-06-11T01:18:23.945Z,14.05
2023-06-11T01:21:31.683Z,13.95
2023-06-11T01:24:22.979Z,14.02
2023-06-11T01:27:05.985Z,14.07
2023-06-11T01:29:36.662Z,14.00
2023-06-11T01:32:05.072Z,13.98
2023-06-11T01:34:32.528Z,14.02
2023-06-11T01:37:00.803Z,14.00
2023-06-11T01:39:27.324Z,13.88
2023-06-11T01:41:55.716Z,13.88
2023-06-11T01:44:23.211Z,13.71
2023-06-11T01:46:49.723Z,13.71
2023-06-11T01:49:16.271Z,13.61
2023-06-11T01:51:42.841Z,13.62
2023-06-11T01:54:09.245Z,13.57
2023-06-11T01:56:35.890Z,13.51
2023-06-11T01:59:02.276Z,13.51
2023-06-11T02:01:30.158Z,13.42
2023-06-11T02:03:57.030Z,13.53
2023-06-11T02:06:24.293Z,13.43
2023-06-11T02:08:51.076Z,13.38
2023-06-11T02:11:17.796Z,13.29
2023-06-11T02:13:44.349Z,13.28
2023-06-11T02:16:10.981Z,13.18
2023-06-11T02:18:37.424Z,13.17
2023-06-11T02:21:03.933Z,13.13
2023-06-11T02:23:30.923Z,13.24
2023-06-11T02:25:57.379Z,13.28
2023-06-11T02:28:23.758Z,13.25
2023-06-11T02:30:50.302Z,13.35
2023-06-11T02:33:16.728Z,13.24
2023-06-11T02:35:43.212Z,13.07
2023-06-11T02:38:09.657Z,13.04
2023-06-11T02:40:36.075Z,13.02
2023-06-11T02:43:02.698Z,12.97
2023-06-11T02:45:29.112Z,12.89
2023-06-11T02:47:55.630Z,12.97
2023-06-11T02:50:22.022Z,12.90
2023-06-11T02:52:48.449Z,12.82
2023-06-11T02:55:14.967Z,12.83
2023-06-11T02:57:41.413Z,12.75
2023-06-11T03:00:11.086Z,12.74
2023-06-11T03:02:37.975Z,12.71
2023-06-11T03:05:04.791Z,12.63
2023-06-11T03:07:31.178Z,12.77
2023-06-11T03:09:57.617Z,12.74
2023-06-11T03:12:24.060Z,12.71
2023-06-11T03:14:50.631Z,12.58
2023-06-11T03:17:17.120Z,12.59
2023-06-11T03:19:43.602Z,12.46
2023-06-11T03:22:09.982Z,12.54
2023-06-11T03:24:36.406Z,12.53
2023-06-11T03:27:02.805Z,12.57
2023-06-11T03:29:29.177Z,12.69
2023-06-11T03:31:55.920Z,12.72
2023-06-11T03:34:22.621Z,12.76
2023-06-11T03:36:49.126Z,12.62
2023-06-11T03:39:15.727Z,12.64
2023-06-11T03:41:42.200Z,12.63
2023-06-11T03:44:08.792Z,12.57
2023-06-11T03:46:35.440Z,12.63
2023-06-11T03:49:02.799Z,12.57
2023-06-11T03:51:29.257Z,12.52
2023-06-11T03:53:55.717Z,12.50
2023-06-11T03:56:22.198Z,12.59
2023-06-11T03:58:48.658Z,12.94
2023-06-11T04:01:15.390Z,13.44
2023-06-11T04:03:41.902Z,13.38
2023-06-11T04:06:08.380Z,13.10
2023-06-11T04:08:34.812Z,13.04
2023-06-11T04:11:01.396Z,12.93
2023-06-11T04:13:27.866Z,12.98
2023-06-11T04:15:54.710Z,13.00
2023-06-11T04:18:21.633Z,12.95
2023-06-11T04:20:48.095Z,12.93
2023-06-11T04:23:14.722Z,12.97
2023-06-11T04:25:41.160Z,13.01
2023-06-11T04:28:09.065Z,13.14
2023-06-11T04:30:35.637Z,13.13
2023-06-11T04:33:04.589Z,13.22
2023-06-11T04:35:34.293Z,13.28
2023-06-11T04:38:04.168Z,13.37
2023-06-11T04:40:31.474Z,13.43
2023-06-11T04:42:58.817Z,13.51
2023-06-11T04:45:27.844Z,13.63
2023-06-11T04:47:54.751Z,13.77
2023-06-11T04:50:23.932Z,13.87
2023-06-11T04:52:53.776Z,13.91
2023-06-11T04:55:25.935Z,14.16
2023-06-11T04:57:52.985Z,14.33
2023-06-11T05:00:19.547Z,14.42
2023-06-11T05:02:46.080Z,14.60
2023-06-11T05:05:13.540Z,14.60
2023-06-11T05:07:40.753Z,14.72
2023-06-11T05:10:07.803Z,15.08
2023-06-11T05:12:34.351Z,15.30
2023-06-11T05:15:00.998Z,15.38
2023-06-11T05:17:28.638Z,15.52
2023-06-11T05:19:55.190Z,15.78
2023-06-11T05:22:21.829Z,16.10
2023-06-11T05:24:48.704Z,16.35
2023-06-11T05:27:16.136Z,16.62
2023-06-11T05:29:45.760Z,17.23
2023-06-11T05:32:12.868Z,17.55
2023-06-11T05:34:40.850Z,17.83
2023-06-11T05:37:07.562Z,18.14
2023-06-11T05:39:34.070Z,18.25
2023-06-11T05:42:00.496Z,18.90
2023-06-11T05:44:26.991Z,19.08
2023-06-11T05:46:53.633Z,19.74
2023-06-11T05:49:20.232Z,19.40
2023-06-11T05:51:46.643Z,19.78
2023-06-11T05:54:13.080Z,19.73
2023-06-11T05:56:39.710Z,19.62
2023-06-11T05:59:08.909Z,20.09
2023-06-11T06:01:36.187Z,20.48
2023-06-11T06:04:02.872Z,21.07
2023-06-11T06:06:31.087Z,22.06
2023-06-11T06:08:57.683Z,22.36
2023-06-11T06:11:24.126Z,22.36
2023-06-11T06:13:50.627Z,21.90
2023-06-11T06:16:17.074Z,22.80
2023-06-11T06:18:45.273Z,22.57
2023-06-11T06:21:11.696Z,23.64
2023-06-11T06:23:38.118Z,24.48
2023-06-11T06:26:04.880Z,24.94
2023-06-11T06:28:33.147Z,24.78
2023-06-11T06:30:59.682Z,25.76
2023-06-11T06:33:26.132Z,25.91
2023-06-11T06:35:52.593Z,24.52
2023-06-11T06:38:18.998Z,23.98
2023-06-11T06:40:45.440Z,23.99
2023-06-11T06:43:11.865Z,23.83
2023-06-11T06:45:39.304Z,24.12
2023-06-11T06:48:06.516Z,24.20
2023-06-11T06:50:33.020Z,25.62
2023-06-11T06:53:00.058Z,24.54
2023-06-11T06:55:26.513Z,23.44
2023-06-11T06:57:52.967Z,23.79
2023-06-11T07:00:19.699Z,23.66
2023-06-11T07:02:46.916Z,23.61
2023-06-11T07:05:13.926Z,24.39
2023-06-11T07:07:43.371Z,23.46
2023-06-11T07:10:10.803Z,23.56
2023-06-11T07:12:37.627Z,23.85
2023-06-11T07:15:05.426Z,24.88
2023-06-11T07:17:31.973Z,24.55
2023-06-11T07:19:58.540Z,24.77
2023-06-11T07:22:25.140Z,25.24
2023-06-11T07:24:52.100Z,25.22
2023-06-11T07:27:18.755Z,26.02
2023-06-11T07:29:45.219Z,26.10
2023-06-11T07:32:11.653Z,25.75
2023-06-11T07:34:38.118Z,25.60
2023-06-11T07:37:05.042Z,25.51
2023-06-11T07:39:31.512Z,25.02
2023-06-11T07:41:58.048Z,24.42
2023-06-11T07:44:24.496Z,24.37
2023-06-11T07:46:51.424Z,25.09
2023-06-11T07:49:18.113Z,25.08
2023-06-11T07:51:46.397Z,25.58
2023-06-11T07:54:13.120Z,26.32
2023-06-11T07:56:39.681Z,26.12
2023-06-11T07:59:08.058Z,25.42
2023-06-11T08:01:37.455Z,25.77
2023-06-11T08:04:06.116Z,25.75
2023-06-11T08:06:32.842Z,24.85
2023-06-11T08:08:59.270Z,25.06
2023-06-11T08:11:26.259Z,25.23
2023-06-11T08:13:52.880Z,25.35
2023-06-11T08:16:19.625Z,24.94
2023-06-11T08:18:46.264Z,25.52
2023-06-11T08:21:12.701Z,25.96
2023-06-11T08:23:40.293Z,25.78
2023-06-11T08:26:07.665Z,24.79
2023-06-11T08:28:35.986Z,25.57
2023-06-11T08:31:02.603Z,26.04
2023-06-11T08:33:29.267Z,25.87
2023-06-11T08:35:55.989Z,25.52
2023-06-11T08:38:22.570Z,25.32
2023-06-11T08:40:49.285Z,25.70
2023-06-11T08:43:15.805Z,25.73
2023-06-11T08:45:42.816Z,26.25
2023-06-11T08:48:10.206Z,26.59
2023-06-11T08:50:37.307Z,27.23
2023-06-11T08:53:05.836Z,26.60
2023-06-11T08:55:32.286Z,26.89
2023-06-11T08:57:58.853Z,26.95
2023-06-11T09:00:25.554Z,25.94
2023-06-11T09:02:52.703Z,25.76
2023-06-11T09:05:19.651Z,26.67
2023-06-11T09:07:53.089Z,26.29
2023-06-11T09:10:20.795Z,25.91
2023-06-11T09:12:47.695Z,25.69
2023-06-11T09:15:14.769Z,26.27
2023-06-11T09:17:43.918Z,26.03
2023-06-11T09:20:13.079Z,26.63
2023-06-11T09:22:42.591Z,26.25
2023-06-11T09:25:19.099Z,26.24
2023-06-11T09:27:47.024Z,26.35
2023-06-11T09:30:17.598Z,26.61
2023-06-11T09:32:46.602Z,26.18
2023-06-11T09:35:14.985Z,26.38
2023-06-11T09:37:48.345Z,26.46
2023-06-11T09:40:20.851Z,26.35
2023-06-11T09:42:48.885Z,26.09
2023-06-11T09:45:20.345Z,26.02
2023-06-11T09:47:48.116Z,26.02
2023-06-11T09:50:17.385Z,26.50
2023-06-11T09:52:45.719Z,26.05
2023-06-11T09:55:12.954Z,26.50
2023-06-11T09:57:40.353Z,26.25
2023-06-11T10:00:10.834Z,26.27
2023-06-11T10:02:39.770Z,26.41
2023-06-11T10:05:08.489Z,26.78
2023-06-11T10:07:45.684Z,25.98
2023-06-11T10:10:15.220Z,26.67
2023-06-11T10:12:41.918Z,26.64
2023-06-11T10:15:12.925Z,26.47
2023-06-11T10:17:49.490Z,25.90
2023-06-11T10:20:27.287Z,26.13
2023-06-11T10:23:07.768Z,26.21
2023-06-11T10:25:36.024Z,26.68
2023-06-11T10:28:02.821Z,26.55
2023-06-11T10:30:29.700Z,26.73
2023-06-11T10:32:57.855Z,26.99
2023-06-11T10:35:26.596Z,26.77
2023-06-11T10:38:05.947Z,26.39
2023-06-11T10:40:37.341Z,25.90
2023-06-11T10:43:15.464Z,26.25
2023-06-11T10:45:42.197Z,26.46
2023-06-11T10:48:08.864Z,27.21
2023-06-11T10:50:36.960Z,27.05
2023-06-11T10:53:11.478Z,27.12
2023-06-11T10:55:43.595Z,26.80
2023-06-11T10:58:19.410Z,27.21
2023-06-11T11:00:46.362Z,27.63
2023-06-11T11:03:13.521Z,27.11
2023-06-11T11:05:42.271Z,27.62
2023-06-11T11:08:08.865Z,27.58
2023-06-11T11:10:35.515Z,28.03
2023-06-11T11:13:04.373Z,27.88
2023-06-11T11:15:31.662Z,27.38
2023-06-11T11:17:58.403Z,28.38
2023-06-11T11:20:25.112Z,28.32
2023-06-11T11:22:55.827Z,28.55
2023-06-11T11:25:25.764Z,28.29
2023-06-11T11:27:52.234Z,28.30
2023-06-11T11:30:19.332Z,27.67
2023-06-11T11:32:46.379Z,27.64
2023-06-11T11:35:15.823Z,27.87
2023-06-11T11:37:42.592Z,27.66
2023-06-11T11:40:10.228Z,27.75
2023-06-11T11:42:56.692Z,28.40
2023-06-11T11:45:30.570Z,27.96
2023-06-11T11:47:57.313Z,27.83
2023-06-11T11:50:28.566Z,28.73
2023-06-11T11:53:03.932Z,28.79
2023-06-11T11:56:04.420Z,28.57
2023-06-11T11:58:42.428Z,28.03
2023-06-11T12:01:22.835Z,28.50
2023-06-11T12:04:03.115Z,28.18
2023-06-11T12:06:31.478Z,28.27
2023-06-11T12:08:58.389Z,28.36
2023-06-11T12:11:25.236Z,29.42
2023-06-11T12:13:51.806Z,28.53
2023-06-11T12:16:18.501Z,28.29
2023-06-11T12:18:45.031Z,29.34
2023-06-11T12:21:11.798Z,29.89
2023-06-11T12:23:38.834Z,30.02
2023-06-11T12:26:05.283Z,29.54
2023-06-11T12:28:33.799Z,29.90
2023-06-11T12:31:00.316Z,30.82
2023-06-11T12:33:26.835Z,30.03
2023-06-11T12:35:53.332Z,28.79
2023-06-11T12:38:19.778Z,29.31
2023-06-11T12:40:46.268Z,28.99
2023-06-11T12:43:12.626Z,29.85
2023-06-11T12:45:39.179Z,30.65
2023-06-11T12:48:06.209Z,28.65
2023-06-11T12:50:32.809Z,29.61
2023-06-11T12:53:00.313Z,29.01
2023-06-11T12:55:26.848Z,28.33
2023-06-11T12:57:53.361Z,28.22
2023-06-11T13:00:20.057Z,28.43
2023-06-11T13:02:47.101Z,29.42
2023-06-11T13:05:13.597Z,30.58
2023-06-11T13:07:40.028Z,30.89
2023-06-11T13:10:06.836Z,32.68
2023-06-11T13:12:33.507Z,31.87
2023-06-11T13:15:00.192Z,31.41
2023-06-11T13:17:27.155Z,32.55
2023-06-11T13:19:55.859Z,30.57
2023-06-11T13:22:22.972Z,28.87
2023-06-11T13:24:49.877Z,29.41
2023-06-11T13:27:16.468Z,29.82
2023-06-11T13:29:43.901Z,28.68
2023-06-11T13:32:10.573Z,29.22
2023-06-11T13:34:37.320Z,28.84
2023-06-11T13:37:04.491Z,28.78
2023-06-11T13:39:31.262Z,29.33
2023-06-11T13:41:57.746Z,29.56
2023-06-11T13:44:25.024Z,29.15
2023-06-11T13:46:51.934Z,30.13
2023-06-11T13:49:18.426Z,29.05
2023-06-11T13:51:44.967Z,29.54
2023-06-11T13:54:11.900Z,29.12
2023-06-11T13:56:39.069Z,27.82
2023-06-11T13:59:05.548Z,27.23
2023-06-11T14:01:32.061Z,27.17
2023-06-11T14:03:58.675Z,27.56
2023-06-11T14:06:26.184Z,27.73
2023-06-11T14:08:52.708Z,27.80
2023-06-11T14:11:19.341Z,28.37
2023-06-11T14:13:46.118Z,28.72
2023-06-11T14:16:12.926Z,29.02
2023-06-11T14:18:39.500Z,28.49
2023-06-11T14:21:06.081Z,28.12
2023-06-11T14:23:32.788Z,27.68
2023-06-11T14:25:59.343Z,27.93
2023-06-11T14:28:26.076Z,27.85
2023-06-11T14:30:54.022Z,28.11
2023-06-11T14:33:21.103Z,28.38
2023-06-11T14:35:48.072Z,28.70
2023-06-11T14:38:14.533Z,29.17
2023-06-11T14:40:41.495Z,29.25
2023-06-11T14:43:08.012Z,29.35
2023-06-11T14:45:34.507Z,28.63
2023-06-11T14:48:01.193Z,28.37
2023-06-11T14:50:27.833Z,28.51
2023-06-11T14:52:54.292Z,28.91
2023-06-11T14:55:21.030Z,28.46
2023-06-11T14:57:47.568Z,27.95
2023-06-11T15:00:14.938Z,27.86
2023-06-11T15:02:41.764Z,27.67
2023-06-11T15:05:08.913Z,27.55
2023-06-11T15:07:36.284Z,27.82
2023-06-11T15:10:05.201Z,27.94
2023-06-11T15:12:32.102Z,28.20
2023-06-11T15:15:01.914Z,28.14
2023-06-11T15:17:32.987Z,27.98
2023-06-11T15:20:00.271Z,27.81
2023-06-11T15:22:27.148Z,28.10
2023-06-11T15:24:53.657Z,27.94
2023-06-11T15:27:20.231Z,28.01
2023-06-11T15:29:46.851Z,27.74
2023-06-11T15:32:20.570Z,27.52
2023-06-11T15:34:47.187Z,27.39
2023-06-11T15:37:13.648Z,27.42
2023-06-11T15:39:40.060Z,27.76
2023-06-11T15:42:06.633Z,28.02
2023-06-11T15:44:33.093Z,27.69
2023-06-11T15:46:59.721Z,27.60
2023-06-11T15:49:26.181Z,27.66
2023-06-11T15:51:53.075Z,27.49
2023-06-11T15:54:19.595Z,27.31
2023-06-11T15:56:49.070Z,27.16
2023-06-11T15:59:15.705Z,27.01
2023-06-11T16:01:43.727Z,27.04
2023-06-11T16:04:10.669Z,27.14
2023-06-11T16:06:37.318Z,27.27
2023-06-11T16:09:04.006Z,27.54
2023-06-11T16:11:30.717Z,27.51
2023-06-11T16:13:57.196Z,27.13
2023-06-11T16:16:23.729Z,26.97
2023-06-11T16:18:50.335Z,26.84
2023-06-11T16:21:17.034Z,26.79
2023-06-11T16:23:43.601Z,26.91
2023-06-11T16:26:10.136Z,26.70
2023-06-11T16:28:36.579Z,26.84
2023-06-11T16:31:03.313Z,26.69
2023-06-11T16:33:47.691Z,26.87
2023-06-11T16:36:19.635Z,26.81
2023-06-11T16:38:46.112Z,26.71
2023-06-11T16:41:12.623Z,26.71
2023-06-11T16:43:41.413Z,26.64
2023-06-11T16:46:09.507Z,26.56
2023-06-11T16:48:36.132Z,26.68
2023-06-11T16:51:02.671Z,26.48
2023-06-11T16:53:29.134Z,26.65
2023-06-11T16:55:55.783Z,26.72
2023-06-11T16:58:22.171Z,26.77
2023-06-11T17:00:48.974Z,26.78
2023-06-11T17:03:15.646Z,26.67
2023-06-11T17:05:42.206Z,26.60
2023-06-11T17:08:08.781Z,26.60
2023-06-11T17:10:36.356Z,26.32
2023-06-11T17:13:03.206Z,26.31
2023-06-11T17:15:29.709Z,26.36
2023-06-11T17:17:56.265Z,26.18
2023-06-11T17:20:22.959Z,26.21
2023-06-11T17:22:51.722Z,26.19
2023-06-11T17:25:19.043Z,26.10
2023-06-11T17:27:45.731Z,26.08
2023-06-11T17:30:13.118Z,25.91
2023-06-11T17:32:39.923Z,25.92
2023-06-11T17:35:08.177Z,25.87
2023-06-11T17:37:34.801Z,25.84
2023-06-11T17:40:01.338Z,25.70
2023-06-11T17:42:27.964Z,25.78
2023-06-11T17:44:54.871Z,25.72
2023-06-11T17:47:21.375Z,25.59
2023-06-11T17:49:49.852Z,25.39
2023-06-11T17:52:16.968Z,25.38
2023-06-11T17:54:43.844Z,25.32
2023-06-11T17:57:11.458Z,25.24
2023-06-11T17:59:38.063Z,25.12
2023-06-11T18:02:04.943Z,25.14
2023-06-11T18:04:31.396Z,25.04
2023-06-11T18:06:57.878Z,24.96
2023-06-11T18:09:24.459Z,24.95
2023-06-11T18:11:51.148Z,24.80
2023-06-11T18:14:17.815Z,24.81
2023-06-11T18:16:44.407Z,24.81
2023-06-11T18:19:11.069Z,24.70
2023-06-11T18:21:38.284Z,24.59
2023-06-11T18:24:05.407Z,24.52
2023-06-11T18:26:35.519Z,24.33
2023-06-11T18:29:02.488Z,24.32
2023-06-11T18:31:29.109Z,24.23
2023-06-11T18:33:56.005Z,23.99
2023-06-11T18:36:22.615Z,24.05
2023-06-11T18:38:49.165Z,23.89
2023-06-11T18:41:17.810Z,23.79
2023-06-11T18:43:44.239Z,23.74
2023-06-11T18:46:10.751Z,23.58
2023-06-11T18:48:37.254Z,23.53
2023-06-11T18:51:03.737Z,23.45
2023-06-11T18:53:30.360Z,23.42
2023-06-11T18:55:56.892Z,23.33
2023-06-11T18:58:23.297Z,23.22
2023-06-11T19:00:49.942Z,23.05
2023-06-11T19:03:17.378Z,22.93
2023-06-11T19:05:44.079Z,22.88
2023-06-11T19:08:10.625Z,22.76
2023-06-11T19:10:37.181Z,22.64
2023-06-11T19:13:05.780Z,22.49
2023-06-11T19:15:32.483Z,22.25
2023-06-11T19:17:59.995Z,21.94
2023-06-11T19:20:28.257Z,21.84
2023-06-11T19:22:55.908Z,21.72
2023-06-11T19:25:22.551Z,21.60
2023-06-11T19:27:49.137Z,21.38
2023-06-11T19:30:16.015Z,21.26
2023-06-11T19:32:43.227Z,21.13
2023-06-11T19:35:09.864Z,20.98
2023-06-11T19:37:36.369Z,20.85
2023-06-11T19:40:03.700Z,20.79
2023-06-11T19:42:30.186Z,20.59
2023-06-11T19:44:56.895Z,20.47
2023-06-11T19:47:23.562Z,20.42
2023-06-11T19:49:50.541Z,20.09
2023-06-11T19:52:17.060Z,19.99
2023-06-11T19:54:51.206Z,19.66
2023-06-11T19:57:20.036Z,19.61
2023-06-11T19:59:48.004Z,19.59
2023-06-11T20:02:14.931Z,19.47
2023-06-11T20:04:41.579Z,19.31
2023-06-11T20:07:10.024Z,18.80
2023-06-11T20:09:36.639Z,18.84
2023-06-11T20:12:09.465Z,18.61
2023-06-11T20:14:37.120Z,18.42
2023-06-11T20:17:04.705Z,18.33
2023-06-11T20:19:31.611Z,18.30
2023-06-11T20:21:59.927Z,18.14
2023-06-11T20:24:27.262Z,18.18
2023-06-11T20:26:54.646Z,17.93
2023-06-11T20:29:23.043Z,17.63
2023-06-11T20:31:49.861Z,17.57
2023-06-11T20:34:17.310Z,17.42
2023-06-11T20:36:44.136Z,17.24
2023-06-11T20:39:10.752Z,17.18
2023-06-11T20:41:37.245Z,17.02
2023-06-11T20:44:04.039Z,16.96
2023-06-11T20:46:30.942Z,16.76
2023-06-11T20:48:58.131Z,16.76
2023-06-11T20:51:24.629Z,16.71
2023-06-11T20:53:51.188Z,16.58
2023-06-11T20:56:19.998Z,16.59
2023-06-11T20:58:46.782Z,16.58
2023-06-11T21:01:13.872Z,16.54
2023-06-11T21:03:40.688Z,16.55
2023-06-11T21:06:07.731Z,16.34
2023-06-11T21:08:34.255Z,16.24
2023-06-11T21:11:01.102Z,15.97
2023-06-11T21:13:27.712Z,16.06
2023-06-11T21:15:54.334Z,16.01
2023-06-11T21:18:20.851Z,15.79
2023-06-11T21:20:47.397Z,15.84
2023-06-11T21:23:13.973Z,15.59
2023-06-11T21:25:40.502Z,15.46
2023-06-11T21:28:07.159Z,15.53
2023-06-11T21:30:34.880Z,15.41
2023-06-11T21:33:01.381Z,15.39
2023-06-11T21:35:27.993Z,15.23
2023-06-11T21:37:54.508Z,14.87
2023-06-11T21:40:20.992Z,14.88
2023-06-11T21:42:47.467Z,14.85
2023-06-11T21:45:13.951Z,14.82
2023-06-11T21:47:40.486Z,14.74
2023-06-11T21:50:07.387Z,14.74
2023-06-11T21:52:38.604Z,14.64
2023-06-11T21:55:07.267Z,14.55
2023-06-11T21:57:33.979Z,14.39
2023-06-11T22:00:05.552Z,14.48
2023-06-11T22:02:32.158Z,14.41
2023-06-11T22:04:58.669Z,14.32
2023-06-11T22:07:25.082Z,14.23
2023-06-11T22:09:51.513Z,14.24
2023-06-11T22:12:20.383Z,14.21
2023-06-11T22:14:46.849Z,14.25
2023-06-11T22:17:14.799Z,14.09
2023-06-11T22:19:41.448Z,14.11
2023-06-11T22:22:11.319Z,14.13
2023-06-11T22:24:41.722Z,14.10
2023-06-11T22:27:09.104Z,14.07
2023-06-11T22:29:35.716Z,13.92
2023-06-11T22:32:02.290Z,13.89
2023-06-11T22:34:28.854Z,13.87
2023-06-11T22:36:55.521Z,13.84
2023-06-11T22:39:21.987Z,13.81
2023-06-11T22:41:48.712Z,13.71
2023-06-11T22:44:15.536Z,13.79
2023-06-11T22:46:42.015Z,13.80
2023-06-11T22:49:08.989Z,13.76
2023-06-11T22:51:37.575Z,13.72
2023-06-11T22:54:04.940Z,13.69
2023-06-11T22:56:31.694Z,13.67
2023-06-11T22:58:58.174Z,13.36
2023-06-11T23:01:24.632Z,13.55
2023-06-11T23:03:51.915Z,13.65
2023-06-11T23:06:18.535Z,13.63
2023-06-11T23:08:45.403Z,13.47
2023-06-11T23:11:11.885Z,13.44
2023-06-11T23:13:38.296Z,13.38
2023-06-11T23:16:05.074Z,13.38
2023-06-11T23:18:32.835Z,13.38
2023-06-11T23:21:00.442Z,13.30
2023-06-11T23:23:31.230Z,13.32
2023-06-11T23:25:58.815Z,13.33
2023-06-11T23:28:25.998Z,13.32
2023-06-11T23:30:53.714Z,13.31
2023-06-11T23:33:21.366Z,13.19
2023-06-11T23:35:47.953Z,13.21
2023-06-11T23:38:14.514Z,13.13
2023-06-11T23:40:41.140Z,13.17
2023-06-11T23:43:07.690Z,13.02
2023-06-11T23:45:34.220Z,13.07
2023-06-11T23:48:01.220Z,13.09
2023-06-11T23:50:27.803Z,13.26
2023-06-11T23:52:54.204Z,13.00
2023-06-11T23:55:22.810Z,12.88
2023-06-11T23:58:21.113Z,12.85
